createdAt,value
2018-03-29T00:00:50.832Z,10.76
2018-03-29T00:03:18.286Z,10.81
2018-03-29T00:05:45.671Z,10.80
2018-03-29T00:08:13.093Z,10.84
2018-03-29T00:10:40.488Z,10.81
2018-03-29T00:13:08.009Z,10.76
2018-03-29T00:15:35.660Z,10.78
2018-03-29T00:18:03.083Z,10.84
2018-03-29T00:20:30.514Z,10.83
2018-03-29T00:22:57.973Z,10.80
2018-03-29T00:25:25.559Z,10.70
2018-03-29T00:27:53.018Z,10.74
2018-03-29T00:30:20.420Z,10.70
2018-03-29T00:32:47.928Z,10.67
2018-03-29T00:35:15.324Z,10.62
2018-03-29T00:37:42.717Z,10.64
2018-03-29T00:40:10.149Z,10.68
2018-03-29T00:42:37.533Z,10.60
2018-03-29T00:45:04.977Z,10.53
2018-03-29T00:47:32.417Z,10.48
2018-03-29T00:49:59.836Z,10.42
2018-03-29T00:52:27.492Z,10.43
2018-03-29T00:54:54.901Z,10.41
2018-03-29T00:57:22.322Z,10.40
2018-03-29T00:59:50.511Z,10.38
2018-03-29T01:02:17.942Z,10.35
2018-03-29T01:04:45.640Z,10.35
2018-03-29T01:07:13.093Z,10.34
2018-03-29T01:09:40.684Z,10.28
2018-03-29T01:12:08.481Z,10.30
2018-03-29T01:14:36.043Z,10.36
2018-03-29T01:17:03.475Z,10.45
2018-03-29T01:19:30.921Z,10.50
2018-03-29T01:21:59.109Z,10.46
2018-03-29T01:24:26.611Z,10.48
2018-03-29T01:26:54.008Z,10.46
2018-03-29T01:29:21.460Z,10.45
2018-03-29T01:31:48.900Z,10.43
2018-03-29T01:34:16.288Z,10.46
2018-03-29T01:36:43.694Z,10.53
2018-03-29T01:39:11.159Z,10.59
2018-03-29T01:41:38.564Z,10.66
2018-03-29T01:44:06.028Z,10.61
2018-03-29T01:46:33.444Z,10.53
2018-03-29T01:49:00.897Z,10.44
2018-03-29T01:51:28.540Z,10.48
2018-03-29T01:53:56.512Z,10.49
2018-03-29T01:56:23.920Z,10.49
2018-03-29T01:58:51.349Z,10.60
2018-03-29T02:01:18.785Z,10.60
2018-03-29T02:03:46.273Z,10.60
2018-03-29T02:06:13.805Z,10.62
2018-03-29T02:08:41.991Z,10.60
2018-03-29T02:11:09.426Z,10.56
2018-03-29T02:13:36.821Z,10.54
2018-03-29T02:16:04.298Z,10.57
2018-03-29T02:18:31.713Z,10.66
2018-03-29T02:20:59.842Z,10.69
2018-03-29T02:23:27.260Z,10.70
2018-03-29T02:25:54.656Z,10.70
2018-03-29T02:28:22.137Z,10.73
2018-03-29T02:30:49.612Z,10.71
2018-03-29T02:33:16.996Z,10.73
2018-03-29T02:35:44.501Z,10.68
2018-03-29T02:38:11.931Z,10.72
2018-03-29T02:40:39.405Z,10.74
2018-03-29T02:43:06.797Z,10.74
2018-03-29T02:45:34.271Z,10.66
2018-03-29T02:48:01.712Z,10.65
2018-03-29T02:50:29.191Z,10.57
2018-03-29T02:52:56.594Z,10.50
2018-03-29T02:55:23.980Z,10.53
2018-03-29T02:57:51.410Z,10.60
2018-03-29T03:00:18.879Z,10.55
2018-03-29T03:02:46.445Z,10.56
2018-03-29T03:05:14.324Z,10.57
2018-03-29T03:07:41.803Z,10.64
2018-03-29T03:10:09.265Z,10.66
2018-03-29T03:12:36.738Z,10.72
2018-03-29T03:15:04.206Z,10.79
2018-03-29T03:17:31.629Z,10.76
2018-03-29T03:19:59.098Z,10.69
2018-03-29T03:22:26.550Z,10.69
2018-03-29T03:24:53.976Z,10.71
2018-03-29T03:27:21.543Z,10.67
2018-03-29T03:29:49.921Z,10.61
2018-03-29T03:32:17.383Z,10.62
2018-03-29T03:34:44.782Z,10.58
2018-03-29T03:37:12.840Z,10.56
2018-03-29T03:39:40.298Z,10.50
2018-03-29T03:42:07.782Z,10.49
2018-03-29T03:44:35.224Z,10.49
2018-03-29T03:47:02.692Z,10.43
2018-03-29T03:49:30.080Z,10.39
2018-03-29T03:51:57.528Z,10.38
2018-03-29T03:54:25.041Z,10.33
2018-03-29T03:56:52.498Z,10.34
2018-03-29T03:59:19.921Z,10.34
2018-03-29T04:01:47.353Z,10.35
2018-03-29T04:04:14.833Z,10.33
2018-03-29T04:06:42.242Z,10.27
2018-03-29T04:09:09.675Z,10.31
2018-03-29T04:11:37.077Z,10.26
2018-03-29T04:14:04.481Z,10.21
2018-03-29T04:16:31.876Z,10.27
2018-03-29T04:18:59.319Z,10.33
2018-03-29T04:21:26.781Z,10.38
2018-03-29T04:23:54.281Z,10.42
2018-03-29T04:26:21.758Z,10.41
2018-03-29T04:28:49.144Z,10.41
2018-03-29T04:31:16.538Z,10.35
2018-03-29T04:33:43.997Z,10.29
2018-03-29T04:36:11.474Z,10.21
2018-03-29T04:38:38.892Z,10.12
2018-03-29T04:41:06.326Z,10.06
2018-03-29T04:43:33.789Z,10.05
2018-03-29T04:46:01.188Z,10.02
2018-03-29T04:48:28.609Z,9.95
2018-03-29T04:50:56.042Z,9.97
2018-03-29T04:53:23.428Z,10.05
2018-03-29T04:55:50.901Z,9.79
2018-03-29T04:58:18.340Z,9.70
2018-03-29T05:00:45.785Z,9.65
2018-03-29T05:03:13.185Z,9.61
2018-03-29T05:05:40.616Z,9.62
2018-03-29T05:08:08.078Z,9.59
2018-03-29T05:10:35.492Z,9.57
2018-03-29T05:13:02.938Z,9.67
2018-03-29T05:15:30.335Z,9.66
2018-03-29T05:17:57.762Z,9.68
2018-03-29T05:20:25.186Z,9.61
2018-03-29T05:22:52.763Z,9.64
2018-03-29T05:25:20.177Z,9.61
2018-03-29T05:28:02.357Z,9.61
2018-03-29T05:30:29.801Z,9.60
2018-03-29T05:32:57.252Z,9.68
2018-03-29T05:35:24.670Z,9.84
2018-03-29T05:37:52.133Z,9.92
2018-03-29T05:40:19.587Z,9.94
2018-03-29T05:42:47.066Z,9.90
2018-03-29T05:45:14.565Z,9.91
2018-03-29T05:47:42.101Z,9.84
2018-03-29T05:50:09.653Z,9.84
2018-03-29T05:52:37.105Z,9.87
2018-03-29T05:55:04.541Z,9.83
2018-03-29T05:57:32.004Z,9.75
2018-03-29T05:59:59.463Z,9.69
2018-03-29T06:02:27.633Z,9.78
2018-03-29T06:04:55.132Z,9.81
2018-03-29T06:07:22.640Z,9.83
2018-03-29T06:09:50.677Z,9.74
2018-03-29T06:12:18.100Z,9.71
2018-03-29T06:14:45.554Z,9.77
2018-03-29T06:17:18.680Z,9.80
2018-03-29T06:19:46.081Z,9.85
2018-03-29T06:22:13.537Z,9.88
2018-03-29T06:24:41.048Z,9.95
2018-03-29T06:27:08.594Z,10.08
2018-03-29T06:29:35.994Z,10.24
2018-03-29T06:32:03.419Z,10.39
2018-03-29T06:34:30.939Z,10.54
2018-03-29T06:36:58.353Z,10.58
2018-03-29T06:39:25.828Z,10.47
2018-03-29T06:41:53.212Z,10.54
2018-03-29T06:44:20.610Z,10.53
2018-03-29T06:46:48.046Z,10.48
2018-03-29T06:49:15.441Z,10.51
2018-03-29T06:51:42.931Z,10.61
2018-03-29T06:54:10.791Z,10.62
2018-03-29T06:56:38.211Z,10.59
2018-03-29T06:59:05.647Z,10.48
2018-03-29T07:01:33.038Z,10.52
2018-03-29T07:04:00.437Z,10.62
2018-03-29T07:06:27.932Z,10.68
2018-03-29T07:08:55.653Z,10.86
2018-03-29T07:11:23.055Z,11.08
2018-03-29T07:13:50.512Z,11.17
2018-03-29T07:16:18.023Z,11.25
2018-03-29T07:18:45.680Z,11.27
2018-03-29T07:21:13.148Z,11.28
2018-03-29T07:23:40.708Z,11.28
2018-03-29T07:26:08.176Z,11.28
2018-03-29T07:28:36.198Z,11.17
2018-03-29T07:31:03.694Z,11.01
2018-03-29T07:33:31.177Z,11.04
2018-03-29T07:35:58.568Z,11.04
2018-03-29T07:38:26.044Z,10.93
2018-03-29T07:40:53.473Z,10.81
2018-03-29T07:43:20.907Z,10.85
2018-03-29T07:45:48.339Z,10.89
2018-03-29T07:48:15.931Z,10.97
2018-03-29T07:50:43.436Z,11.06
2018-03-29T07:53:10.983Z,11.06
2018-03-29T07:55:38.385Z,11.02
2018-03-29T07:58:05.913Z,11.18
2018-03-29T08:00:33.349Z,11.24
2018-03-29T08:03:00.875Z,11.18
2018-03-29T08:05:28.295Z,11.22
2018-03-29T08:07:55.735Z,11.32
2018-03-29T08:10:23.162Z,11.52
2018-03-29T08:12:50.678Z,11.69
2018-03-29T08:15:18.111Z,11.77
2018-03-29T08:17:45.511Z,11.64
2018-03-29T08:20:12.951Z,11.52
2018-03-29T08:22:40.628Z,11.44
2018-03-29T08:25:08.051Z,11.46
2018-03-29T08:27:35.733Z,11.40
2018-03-29T08:30:03.131Z,11.28
2018-03-29T08:32:30.604Z,11.50
2018-03-29T08:34:58.195Z,11.64
2018-03-29T08:37:25.850Z,11.48
2018-03-29T08:39:53.299Z,11.40
2018-03-29T08:42:21.270Z,11.34
2018-03-29T08:44:48.697Z,11.52
2018-03-29T08:47:16.124Z,11.52
2018-03-29T08:49:43.588Z,11.39
2018-03-29T08:52:11.002Z,11.70
2018-03-29T08:54:38.448Z,12.01
2018-03-29T08:57:05.939Z,12.04
2018-03-29T08:59:33.394Z,12.11
2018-03-29T09:02:00.865Z,12.00
2018-03-29T09:04:28.309Z,12.11
2018-03-29T09:06:55.733Z,12.36
2018-03-29T09:09:23.792Z,12.48
2018-03-29T09:11:51.266Z,12.47
2018-03-29T09:14:19.570Z,12.61
2018-03-29T09:16:47.046Z,12.64
2018-03-29T09:19:14.454Z,12.47
2018-03-29T09:21:42.018Z,12.66
2018-03-29T09:24:09.448Z,12.95
2018-03-29T09:26:36.847Z,13.46
2018-03-29T09:29:04.288Z,13.55
2018-03-29T09:31:32.489Z,13.30
2018-03-29T09:34:00.124Z,12.87
2018-03-29T09:36:27.541Z,12.66
2018-03-29T09:38:55.004Z,12.45
2018-03-29T09:41:22.602Z,12.37
2018-03-29T09:43:50.037Z,12.38
2018-03-29T09:46:19.100Z,12.36
2018-03-29T09:48:46.516Z,12.24
2018-03-29T09:51:13.954Z,12.16
2018-03-29T09:53:42.137Z,12.13
2018-03-29T09:56:09.633Z,12.24
2018-03-29T09:58:37.065Z,12.35
2018-03-29T10:01:07.586Z,12.68
2018-03-29T10:03:39.960Z,12.79
2018-03-29T10:06:07.791Z,12.88
2018-03-29T10:08:35.287Z,12.86
2018-03-29T10:11:02.766Z,12.73
2018-03-29T10:13:30.193Z,12.58
2018-03-29T10:15:57.732Z,12.51
2018-03-29T10:18:25.154Z,12.54
2018-03-29T10:20:52.551Z,12.74
2018-03-29T10:23:20.233Z,12.83
2018-03-29T10:25:47.654Z,12.88
2018-03-29T10:28:15.058Z,12.85
2018-03-29T10:30:42.494Z,12.80
2018-03-29T10:33:09.921Z,12.96
2018-03-29T10:35:37.513Z,13.19
2018-03-29T10:38:04.908Z,13.45
2018-03-29T10:40:32.330Z,13.67
2018-03-29T10:42:59.884Z,13.95
2018-03-29T10:45:27.416Z,14.11
2018-03-29T10:47:54.868Z,14.01
2018-03-29T10:50:22.283Z,14.35
2018-03-29T10:52:49.677Z,14.62
2018-03-29T10:55:17.169Z,14.74
2018-03-29T10:57:44.607Z,14.77
2018-03-29T11:00:12.095Z,15.30
2018-03-29T11:02:39.509Z,14.74
2018-03-29T11:05:06.933Z,13.76
2018-03-29T11:07:34.478Z,13.45
2018-03-29T11:10:01.888Z,13.11
2018-03-29T11:12:29.293Z,13.06
2018-03-29T11:14:56.861Z,12.78
2018-03-29T11:17:24.346Z,12.65
2018-03-29T11:19:51.834Z,12.64
2018-03-29T11:22:19.300Z,12.85
2018-03-29T11:24:46.922Z,12.94
2018-03-29T11:27:14.327Z,12.85
2018-03-29T11:29:41.761Z,12.66
2018-03-29T11:32:09.260Z,12.43
2018-03-29T11:34:36.748Z,12.39
2018-03-29T11:37:04.279Z,12.43
2018-03-29T11:39:31.728Z,12.60
2018-03-29T11:41:59.172Z,12.68
2018-03-29T11:44:26.631Z,12.48
2018-03-29T11:46:54.119Z,12.54
2018-03-29T11:49:21.647Z,12.52
2018-03-29T11:51:49.040Z,12.30
2018-03-29T11:54:16.509Z,12.19
2018-03-29T11:56:44.223Z,12.28
2018-03-29T11:59:11.649Z,12.36
2018-03-29T12:01:39.083Z,12.64
2018-03-29T12:04:06.512Z,12.46
2018-03-29T12:06:33.954Z,12.23
2018-03-29T12:09:01.484Z,12.30
2018-03-29T12:11:28.963Z,12.59
2018-03-29T12:13:56.423Z,12.80
2018-03-29T12:16:23.874Z,13.07
2018-03-29T12:18:51.562Z,12.97
2018-03-29T12:21:19.073Z,13.01
2018-03-29T12:23:46.667Z,12.88
2018-03-29T12:26:14.106Z,12.75
2018-03-29T12:28:41.512Z,12.86
2018-03-29T12:31:08.912Z,12.64
2018-03-29T12:33:36.348Z,12.35
2018-03-29T12:36:03.749Z,12.24
2018-03-29T12:38:31.145Z,12.29
2018-03-29T12:40:58.656Z,12.38
2018-03-29T12:43:26.080Z,12.22
2018-03-29T12:45:53.515Z,12.17
2018-03-29T12:48:20.993Z,12.28
2018-03-29T12:50:48.473Z,12.30
2018-03-29T12:53:15.914Z,12.05
2018-03-29T12:55:43.629Z,11.84
2018-03-29T12:58:11.132Z,11.78
2018-03-29T13:00:38.734Z,11.77
2018-03-29T13:03:06.242Z,11.83
2018-03-29T13:05:33.697Z,12.06
2018-03-29T13:08:01.213Z,12.37
2018-03-29T13:10:28.634Z,12.46
2018-03-29T13:12:56.244Z,12.67
2018-03-29T13:15:23.710Z,12.70
2018-03-29T13:17:51.102Z,12.78
2018-03-29T13:20:18.537Z,13.01
2018-03-29T13:22:46.052Z,13.61
2018-03-29T13:25:13.521Z,13.64
2018-03-29T13:27:41.157Z,13.79
2018-03-29T13:30:08.573Z,13.87
2018-03-29T13:32:35.968Z,13.73
2018-03-29T13:35:03.536Z,13.36
2018-03-29T13:37:31.640Z,13.21
2018-03-29T13:39:59.090Z,13.17
2018-03-29T13:42:26.567Z,13.27
2018-03-29T13:44:53.994Z,13.62
2018-03-29T13:47:21.439Z,14.31
2018-03-29T13:49:48.968Z,14.84
2018-03-29T13:52:16.422Z,14.94
2018-03-29T13:54:43.852Z,15.57
2018-03-29T13:57:11.309Z,15.93
2018-03-29T13:59:38.775Z,16.17
2018-03-29T14:02:06.231Z,16.26
2018-03-29T14:04:33.676Z,15.82
2018-03-29T14:07:01.138Z,15.96
2018-03-29T14:09:28.600Z,16.22
2018-03-29T14:11:56.067Z,16.10
2018-03-29T14:14:23.517Z,16.38
2018-03-29T14:16:50.908Z,16.27
2018-03-29T14:19:18.388Z,16.38
2018-03-29T14:21:45.861Z,16.62
2018-03-29T14:24:13.315Z,16.49
2018-03-29T14:26:41.554Z,16.85
2018-03-29T14:29:09.057Z,16.77
2018-03-29T14:31:36.527Z,16.73
2018-03-29T14:34:04.007Z,16.41
2018-03-29T14:36:31.445Z,16.84
2018-03-29T14:38:58.872Z,17.15
2018-03-29T14:41:26.397Z,16.73
2018-03-29T14:43:53.894Z,16.21
2018-03-29T14:46:21.320Z,15.75
2018-03-29T14:48:48.764Z,16.02
2018-03-29T14:51:16.198Z,15.78
2018-03-29T14:53:43.668Z,15.78
2018-03-29T14:56:11.163Z,16.24
2018-03-29T14:58:38.597Z,16.18
2018-03-29T15:01:06.030Z,15.75
2018-03-29T15:03:33.494Z,15.77
2018-03-29T15:06:00.940Z,16.07
2018-03-29T15:08:28.455Z,15.99
2018-03-29T15:10:55.958Z,15.98
2018-03-29T15:13:23.463Z,15.56
2018-03-29T15:15:50.892Z,15.58
2018-03-29T15:18:18.437Z,15.70
2018-03-29T15:20:45.835Z,15.61
2018-03-29T15:23:13.282Z,15.62
2018-03-29T15:25:40.758Z,14.85
2018-03-29T15:28:08.214Z,14.33
2018-03-29T15:30:35.673Z,14.52
2018-03-29T15:33:03.184Z,14.88
2018-03-29T15:35:30.788Z,15.41
2018-03-29T15:37:58.360Z,14.64
2018-03-29T15:40:25.966Z,14.42
2018-03-29T15:42:53.447Z,15.04
2018-03-29T15:45:21.003Z,15.20
2018-03-29T15:47:48.429Z,15.33
2018-03-29T15:50:16.026Z,15.76
2018-03-29T15:52:43.422Z,15.83
2018-03-29T15:55:10.932Z,15.75
2018-03-29T15:57:38.344Z,15.85
2018-03-29T16:00:05.821Z,15.16
2018-03-29T16:02:33.261Z,14.78
2018-03-29T16:05:00.680Z,14.74
2018-03-29T16:07:28.150Z,14.55
2018-03-29T16:09:55.583Z,14.23
2018-03-29T16:12:23.005Z,14.04
2018-03-29T16:14:50.393Z,14.08
2018-03-29T16:17:17.906Z,14.13
2018-03-29T16:19:45.328Z,14.15
2018-03-29T16:22:12.812Z,14.02
2018-03-29T16:24:40.263Z,13.96
2018-03-29T16:27:07.729Z,13.85
2018-03-29T16:29:35.130Z,13.92
2018-03-29T16:32:02.696Z,14.15
2018-03-29T16:34:30.095Z,14.21
2018-03-29T16:36:58.212Z,14.25
2018-03-29T16:39:25.663Z,14.13
2018-03-29T16:41:53.084Z,14.27
2018-03-29T16:44:20.476Z,14.18
2018-03-29T16:46:47.952Z,14.23
2018-03-29T16:49:15.379Z,14.08
2018-03-29T16:51:42.789Z,14.01
2018-03-29T16:54:10.219Z,13.82
2018-03-29T16:56:37.633Z,13.84
2018-03-29T16:59:05.050Z,13.78
2018-03-29T17:01:32.511Z,13.79
2018-03-29T17:04:00.168Z,13.82
2018-03-29T17:06:27.669Z,13.87
2018-03-29T17:08:55.057Z,13.86
2018-03-29T17:11:22.495Z,13.70
2018-03-29T17:13:49.963Z,13.56
2018-03-29T17:16:17.411Z,13.40
2018-03-29T17:18:44.913Z,13.47
2018-03-29T17:21:12.354Z,13.52
2018-03-29T17:23:39.831Z,13.47
2018-03-29T17:26:07.319Z,13.41
2018-03-29T17:28:34.752Z,13.40
2018-03-29T17:31:02.203Z,13.32
2018-03-29T17:33:29.635Z,13.25
2018-03-29T17:35:57.054Z,13.17
2018-03-29T17:38:24.454Z,13.14
2018-03-29T17:40:51.898Z,13.09
2018-03-29T17:43:19.388Z,13.01
2018-03-29T17:45:47.019Z,12.94
2018-03-29T17:48:15.235Z,12.90
2018-03-29T17:50:43.018Z,12.84
2018-03-29T17:53:10.660Z,12.76
2018-03-29T17:55:38.682Z,12.70
2018-03-29T17:58:06.109Z,12.61
2018-03-29T18:00:33.629Z,12.55
2018-03-29T18:03:01.073Z,12.48
2018-03-29T18:05:28.503Z,12.38
2018-03-29T18:07:55.933Z,12.29
2018-03-29T18:10:23.570Z,12.21
2018-03-29T18:12:51.061Z,12.22
2018-03-29T18:15:18.497Z,12.24
2018-03-29T18:17:45.926Z,12.21
2018-03-29T18:20:13.385Z,12.19
2018-03-29T18:22:40.961Z,12.18
2018-03-29T18:25:08.426Z,12.13
2018-03-29T18:27:35.909Z,12.13
2018-03-29T18:30:03.410Z,12.12
2018-03-29T18:32:30.930Z,12.14
2018-03-29T18:34:59.067Z,12.14
2018-03-29T18:37:26.483Z,12.04
2018-03-29T18:39:53.935Z,12.00
2018-03-29T18:42:21.449Z,11.98
2018-03-29T18:44:48.959Z,11.92
2018-03-29T18:47:16.882Z,11.84
2018-03-29T18:49:44.326Z,11.74
2018-03-29T18:52:11.752Z,11.69
2018-03-29T18:54:39.226Z,11.70
2018-03-29T18:57:06.668Z,11.73
2018-03-29T18:59:34.274Z,11.74
2018-03-29T19:02:01.699Z,11.89
2018-03-29T19:04:29.166Z,11.99
2018-03-29T19:06:56.716Z,11.90
2018-03-29T19:09:24.666Z,11.86
2018-03-29T19:11:53.049Z,11.82
2018-03-29T19:14:21.329Z,11.75
2018-03-29T19:16:49.871Z,11.61
2018-03-29T19:19:17.509Z,11.53
2018-03-29T19:21:45.151Z,11.42
2018-03-29T19:24:14.602Z,11.28
2018-03-29T19:26:43.297Z,11.20
2018-03-29T19:29:11.466Z,11.17
2018-03-29T19:31:38.901Z,11.13
2018-03-29T19:34:06.476Z,11.12
2018-03-29T19:36:33.985Z,11.15
2018-03-29T19:39:01.571Z,11.15
2018-03-29T19:41:29.047Z,11.09
2018-03-29T19:43:56.456Z,11.06
2018-03-29T19:46:24.930Z,10.96
2018-03-29T19:48:53.398Z,10.83
2018-03-29T19:51:21.173Z,10.70
2018-03-29T19:53:48.626Z,10.62
2018-03-29T19:56:16.849Z,10.75
2018-03-29T19:58:44.612Z,10.77
2018-03-29T20:01:12.067Z,10.61
2018-03-29T20:03:39.529Z,10.45
2018-03-29T20:06:06.960Z,10.39
2018-03-29T20:08:35.782Z,10.36
2018-03-29T20:11:03.402Z,10.33
2018-03-29T20:13:30.918Z,10.27
2018-03-29T20:15:58.392Z,10.21
2018-03-29T20:18:25.885Z,10.23
2018-03-29T20:20:53.414Z,10.24
2018-03-29T20:23:20.985Z,10.23
2018-03-29T20:25:48.428Z,10.21
2018-03-29T20:28:15.929Z,10.19
2018-03-29T20:30:43.483Z,10.18
2018-03-29T20:33:10.904Z,10.18
2018-03-29T20:35:38.509Z,10.17
2018-03-29T20:38:06.098Z,10.04
2018-03-29T20:40:33.650Z,9.89
2018-03-29T20:43:01.045Z,9.79
2018-03-29T20:45:28.457Z,9.76
2018-03-29T20:47:55.938Z,9.67
2018-03-29T20:50:23.411Z,9.61
2018-03-29T20:52:50.873Z,9.50
2018-03-29T20:55:18.342Z,9.45
2018-03-29T20:57:45.765Z,9.37
2018-03-29T21:00:13.228Z,9.27
2018-03-29T21:02:40.736Z,9.22
2018-03-29T21:05:08.531Z,9.21
2018-03-29T21:07:35.981Z,9.24
2018-03-29T21:10:03.414Z,9.30
2018-03-29T21:12:30.845Z,9.28
2018-03-29T21:14:58.244Z,9.28
2018-03-29T21:17:25.677Z,9.29
2018-03-29T21:19:53.058Z,9.31
2018-03-29T21:22:20.500Z,9.26
2018-03-29T21:24:47.963Z,9.23
2018-03-29T21:27:15.626Z,9.25
2018-03-29T21:29:43.046Z,9.21
2018-03-29T21:32:10.443Z,9.15
2018-03-29T21:34:37.837Z,9.14
2018-03-29T21:37:05.245Z,9.13
2018-03-29T21:39:32.679Z,9.11
2018-03-29T21:42:00.113Z,9.15
2018-03-29T21:44:27.533Z,9.19
2018-03-29T21:46:54.957Z,9.20
2018-03-29T21:49:22.358Z,9.24
2018-03-29T21:51:49.877Z,9.24
2018-03-29T21:54:17.269Z,9.20
2018-03-29T21:56:44.763Z,9.24
2018-03-29T21:59:12.180Z,9.21
2018-03-29T22:01:39.629Z,9.19
2018-03-29T22:04:07.049Z,9.20
2018-03-29T22:06:34.447Z,9.20
2018-03-29T22:09:01.873Z,9.18
2018-03-29T22:11:29.645Z,9.05
2018-03-29T22:13:57.120Z,9.02
2018-03-29T22:16:24.534Z,8.93
2018-03-29T22:18:51.996Z,9.00
2018-03-29T22:21:19.414Z,9.13
2018-03-29T22:23:46.938Z,9.16
2018-03-29T22:26:14.363Z,9.21
2018-03-29T22:28:41.871Z,9.26
2018-03-29T22:31:09.323Z,9.27
2018-03-29T22:33:36.798Z,9.32
2018-03-29T22:36:04.224Z,9.34
2018-03-29T22:38:31.686Z,9.36
2018-03-29T22:40:59.163Z,9.39
2018-03-29T22:43:26.613Z,9.25
2018-03-29T22:45:54.040Z,9.19
2018-03-29T22:48:21.562Z,9.17
2018-03-29T22:50:48.976Z,9.20
2018-03-29T22:53:16.393Z,9.24
2018-03-29T22:55:43.875Z,9.24
2018-03-29T22:58:11.305Z,9.27
2018-03-29T23:00:38.737Z,8.98
2018-03-29T23:03:06.153Z,8.81
2018-03-29T23:05:33.583Z,8.73
2018-03-29T23:08:01.016Z,8.88
2018-03-29T23:10:28.534Z,8.99
2018-03-29T23:12:55.932Z,8.97
2018-03-29T23:15:23.434Z,8.98
2018-03-29T23:17:50.853Z,9.00
2018-03-29T23:20:18.333Z,9.02
2018-03-29T23:22:45.841Z,9.01
2018-03-29T23:25:13.373Z,9.06
2018-03-29T23:27:40.809Z,9.09
2018-03-29T23:30:08.196Z,9.04
2018-03-29T23:32:35.637Z,8.95
2018-03-29T23:35:03.202Z,8.91
2018-03-29T23:37:30.645Z,8.85
2018-03-29T23:39:58.107Z,8.80
2018-03-29T23:42:25.557Z,8.86
2018-03-29T23:44:52.939Z,8.89
2018-03-29T23:47:20.364Z,8.92
2018-03-29T23:49:47.797Z,8.93
2018-03-29T23:52:15.218Z,8.89
2018-03-29T23:54:42.638Z,8.87
2018-03-29T23:57:10.095Z,8.85
2018-03-29T23:59:37.567Z,8.80
